sensor_id;sensor_type;location;lat;lon;timestamp;temperature;humidity
64111;DHT22;50401;48.188;11.566;2024-01-25T00:00:40;8.98;75.33
64111;DHT22;50401;48.188;11.566;2024-01-25T00:03:06;9.19;75.00
64111;DHT22;50401;48.188;11.566;2024-01-25T00:05:31;9.11;75.32
64111;DHT22;50401;48.188;11.566;2024-01-25T00:07:57;9.01;75.84
64111;DHT22;50401;48.188;11.566;2024-01-25T00:10:23;9.05;75.72
64111;DHT22;50401;48.188;11.566;2024-01-25T00:12:48;9.02;75.88
64111;DHT22;50401;48.188;11.566;2024-01-25T00:15:14;8.91;76.29
64111;DHT22;50401;48.188;11.566;2024-01-25T00:17:39;9.02;76.40
64111;DHT22;50401;48.188;11.566;2024-01-25T00:20:05;9.04;76.63
64111;DHT22;50401;48.188;11.566;2024-01-25T00:22:31;8.89;77.23
64111;DHT22;50401;48.188;11.566;2024-01-25T00:24:57;8.93;77.38
64111;DHT22;50401;48.188;11.566;2024-01-25T00:27:23;9.09;77.37
64111;DHT22;50401;48.188;11.566;2024-01-25T00:29:48;9.13;77.47
64111;DHT22;50401;48.188;11.566;2024-01-25T00:32:14;9.15;77.67
64111;DHT22;50401;48.188;11.566;2024-01-25T00:34:39;9.23;77.59
64111;DHT22;50401;48.188;11.566;2024-01-25T00:37:05;9.20;77.70
64111;DHT22;50401;48.188;11.566;2024-01-25T00:39:31;9.22;77.95
64111;DHT22;50401;48.188;11.566;2024-01-25T00:42:05;9.26;77.88
64111;DHT22;50401;48.188;11.566;2024-01-25T00:44:31;9.09;78.50
64111;DHT22;50401;48.188;11.566;2024-01-25T00:46:57;9.19;78.31
64111;DHT22;50401;48.188;11.566;2024-01-25T00:49:23;9.16;78.44
64111;DHT22;50401;48.188;11.566;2024-01-25T00:51:49;9.27;78.35
64111;DHT22;50401;48.188;11.566;2024-01-25T00:54:15;9.29;77.98
64111;DHT22;50401;48.188;11.566;2024-01-25T00:56:41;9.24;78.15
64111;DHT22;50401;48.188;11.566;2024-01-25T00:59:07;9.29;78.03
64111;DHT22;50401;48.188;11.566;2024-01-25T01:01:32;9.24;78.05
64111;DHT22;50401;48.188;11.566;2024-01-25T01:03:58;9.27;78.08
64111;DHT22;50401;48.188;11.566;2024-01-25T01:06:25;9.26;78.16
64111;DHT22;50401;48.188;11.566;2024-01-25T01:08:50;9.30;77.81
64111;DHT22;50401;48.188;11.566;2024-01-25T01:11:16;9.24;77.65
64111;DHT22;50401;48.188;11.566;2024-01-25T01:13:42;9.27;77.57
64111;DHT22;50401;48.188;11.566;2024-01-25T01:16:08;9.30;77.43
64111;DHT22;50401;48.188;11.566;2024-01-25T01:18:33;9.18;77.63
64111;DHT22;50401;48.188;11.566;2024-01-25T01:20:59;9.16;77.70
64111;DHT22;50401;48.188;11.566;2024-01-25T01:23:25;9.19;77.83
64111;DHT22;50401;48.188;11.566;2024-01-25T01:25:50;9.18;77.56
64111;DHT22;50401;48.188;11.566;2024-01-25T01:28:15;9.29;77.17
64111;DHT22;50401;48.188;11.566;2024-01-25T01:30:41;9.20;77.27
64111;DHT22;50401;48.188;11.566;2024-01-25T01:33:09;9.32;77.13
64111;DHT22;50401;48.188;11.566;2024-01-25T01:35:35;9.30;76.94
64111;DHT22;50401;48.188;11.566;2024-01-25T01:38:00;9.27;77.09
64111;DHT22;50401;48.188;11.566;2024-01-25T01:40:26;9.27;76.81
64111;DHT22;50401;48.188;11.566;2024-01-25T01:42:51;9.18;76.92
64111;DHT22;50401;48.188;11.566;2024-01-25T01:45:16;9.29;76.83
64111;DHT22;50401;48.188;11.566;2024-01-25T01:47:42;9.27;76.91
64111;DHT22;50401;48.188;11.566;2024-01-25T01:50:09;9.30;76.96
64111;DHT22;50401;48.188;11.566;2024-01-25T01:52:34;9.22;77.06
64111;DHT22;50401;48.188;11.566;2024-01-25T01:55:00;9.23;77.06
64111;DHT22;50401;48.188;11.566;2024-01-25T01:57:26;9.22;77.20
64111;DHT22;50401;48.188;11.566;2024-01-25T01:59:52;9.34;77.12
64111;DHT22;50401;48.188;11.566;2024-01-25T02:02:18;9.33;76.99
64111;DHT22;50401;48.188;11.566;2024-01-25T02:04:43;9.33;76.90
64111;DHT22;50401;48.188;11.566;2024-01-25T02:07:09;9.33;76.98
64111;DHT22;50401;48.188;11.566;2024-01-25T02:09:35;9.32;77.03
64111;DHT22;50401;48.188;11.566;2024-01-25T02:12:03;9.32;77.11
64111;DHT22;50401;48.188;11.566;2024-01-25T02:14:30;9.30;77.27
64111;DHT22;50401;48.188;11.566;2024-01-25T02:16:56;9.29;77.48
64111;DHT22;50401;48.188;11.566;2024-01-25T02:19:21;9.36;77.30
64111;DHT22;50401;48.188;11.566;2024-01-25T02:21:47;9.36;77.34
64111;DHT22;50401;48.188;11.566;2024-01-25T02:24:13;9.33;77.23
64111;DHT22;50401;48.188;11.566;2024-01-25T02:26:38;9.39;76.85
64111;DHT22;50401;48.188;11.566;2024-01-25T02:29:04;9.34;77.14
64111;DHT22;50401;48.188;11.566;2024-01-25T02:31:30;9.34;77.19
64111;DHT22;50401;48.188;11.566;2024-01-25T02:33:55;9.34;77.12
64111;DHT22;50401;48.188;11.566;2024-01-25T02:36:24;9.30;77.33
64111;DHT22;50401;48.188;11.566;2024-01-25T02:38:50;9.37;77.05
64111;DHT22;50401;48.188;11.566;2024-01-25T02:41:15;9.37;76.99
64111;DHT22;50401;48.188;11.566;2024-01-25T02:43:41;9.43;77.10
64111;DHT22;50401;48.188;11.566;2024-01-25T02:46:07;9.26;77.37
64111;DHT22;50401;48.188;11.566;2024-01-25T02:48:32;9.30;77.43
64111;DHT22;50401;48.188;11.566;2024-01-25T02:50:58;9.29;77.45
64111;DHT22;50401;48.188;11.566;2024-01-25T02:53:23;9.27;77.58
64111;DHT22;50401;48.188;11.566;2024-01-25T02:55:48;9.30;77.61
64111;DHT22;50401;48.188;11.566;2024-01-25T02:58:14;9.32;77.62
64111;DHT22;50401;48.188;11.566;2024-01-25T03:00:39;9.34;77.59
64111;DHT22;50401;48.188;11.566;2024-01-25T03:03:04;9.36;77.60
64111;DHT22;50401;48.188;11.566;2024-01-25T03:05:30;9.37;77.68
64111;DHT22;50401;48.188;11.566;2024-01-25T03:07:55;9.36;77.72
64111;DHT22;50401;48.188;11.566;2024-01-25T03:10:20;9.39;77.59
64111;DHT22;50401;48.188;11.566;2024-01-25T03:12:46;9.33;77.71
64111;DHT22;50401;48.188;11.566;2024-01-25T03:15:11;9.33;77.90
64111;DHT22;50401;48.188;11.566;2024-01-25T03:17:37;9.27;78.17
64111;DHT22;50401;48.188;11.566;2024-01-25T03:20:03;9.15;78.40
64111;DHT22;50401;48.188;11.566;2024-01-25T03:22:28;9.19;78.24
64111;DHT22;50401;48.188;11.566;2024-01-25T03:24:54;9.26;78.33
64111;DHT22;50401;48.188;11.566;2024-01-25T03:27:19;9.12;78.63
64111;DHT22;50401;48.188;11.566;2024-01-25T03:29:45;9.12;78.75
64111;DHT22;50401;48.188;11.566;2024-01-25T03:32:10;9.16;78.69
64111;DHT22;50401;48.188;11.566;2024-01-25T03:34:36;9.29;78.73
64111;DHT22;50401;48.188;11.566;2024-01-25T03:37:02;9.13;78.75
64111;DHT22;50401;48.188;11.566;2024-01-25T03:39:28;9.20;78.90
64111;DHT22;50401;48.188;11.566;2024-01-25T03:41:53;9.20;78.75
64111;DHT22;50401;48.188;11.566;2024-01-25T03:44:19;9.12;78.97
64111;DHT22;50401;48.188;11.566;2024-01-25T03:46:44;9.13;79.16
64111;DHT22;50401;48.188;11.566;2024-01-25T03:49:09;9.18;79.14
64111;DHT22;50401;48.188;11.566;2024-01-25T03:51:35;9.18;79.09
64111;DHT22;50401;48.188;11.566;2024-01-25T03:54:00;9.26;78.96
64111;DHT22;50401;48.188;11.566;2024-01-25T03:56:25;9.26;79.06
64111;DHT22;50401;48.188;11.566;2024-01-25T03:58:52;9.24;79.15
64111;DHT22;50401;48.188;11.566;2024-01-25T04:01:17;9.26;79.14
64111;DHT22;50401;48.188;11.566;2024-01-25T04:03:42;9.27;79.09
64111;DHT22;50401;48.188;11.566;2024-01-25T04:06:08;9.27;78.79
64111;DHT22;50401;48.188;11.566;2024-01-25T04:08:33;9.20;78.98
64111;DHT22;50401;48.188;11.566;2024-01-25T04:10:59;9.19;79.12
64111;DHT22;50401;48.188;11.566;2024-01-25T04:13:24;9.04;79.65
64111;DHT22;50401;48.188;11.566;2024-01-25T04:15:50;9.05;79.48
64111;DHT22;50401;48.188;11.566;2024-01-25T04:18:15;8.95;80.01
64111;DHT22;50401;48.188;11.566;2024-01-25T04:20:41;9.04;79.63
64111;DHT22;50401;48.188;11.566;2024-01-25T04:23:07;8.91;80.02
64111;DHT22;50401;48.188;11.566;2024-01-25T04:25:32;8.99;79.72
64111;DHT22;50401;48.188;11.566;2024-01-25T04:27:57;8.93;79.93
64111;DHT22;50401;48.188;11.566;2024-01-25T04:30:23;9.09;79.61
64111;DHT22;50401;48.188;11.566;2024-01-25T04:32:48;8.99;79.80
64111;DHT22;50401;48.188;11.566;2024-01-25T04:35:14;9.08;79.41
64111;DHT22;50401;48.188;11.566;2024-01-25T04:37:39;9.13;79.43
64111;DHT22;50401;48.188;11.566;2024-01-25T04:40:05;9.18;79.24
64111;DHT22;50401;48.188;11.566;2024-01-25T04:42:31;9.19;79.23
64111;DHT22;50401;48.188;11.566;2024-01-25T04:44:56;9.23;79.22
64111;DHT22;50401;48.188;11.566;2024-01-25T04:47:22;9.23;79.26
64111;DHT22;50401;48.188;11.566;2024-01-25T04:49:47;9.24;79.20
64111;DHT22;50401;48.188;11.566;2024-01-25T04:52:13;9.26;79.24
64111;DHT22;50401;48.188;11.566;2024-01-25T04:54:38;9.30;79.25
64111;DHT22;50401;48.188;11.566;2024-01-25T04:57:04;9.26;79.28
64111;DHT22;50401;48.188;11.566;2024-01-25T04:59:32;9.27;79.54
64111;DHT22;50401;48.188;11.566;2024-01-25T05:01:58;9.20;79.83
64111;DHT22;50401;48.188;11.566;2024-01-25T05:04:24;9.18;79.95
64111;DHT22;50401;48.188;11.566;2024-01-25T05:06:49;9.13;80.17
64111;DHT22;50401;48.188;11.566;2024-01-25T05:09:15;9.12;80.25
64111;DHT22;50401;48.188;11.566;2024-01-25T05:11:40;9.09;80.28
64111;DHT22;50401;48.188;11.566;2024-01-25T05:14:06;9.05;80.62
64111;DHT22;50401;48.188;11.566;2024-01-25T05:16:32;9.04;80.65
64111;DHT22;50401;48.188;11.566;2024-01-25T05:18:57;8.99;80.57
64111;DHT22;50401;48.188;11.566;2024-01-25T05:21:23;8.99;80.71
64111;DHT22;50401;48.188;11.566;2024-01-25T05:23:48;9.02;80.83
64111;DHT22;50401;48.188;11.566;2024-01-25T05:26:14;8.98;80.76
64111;DHT22;50401;48.188;11.566;2024-01-25T05:28:40;8.97;80.85
64111;DHT22;50401;48.188;11.566;2024-01-25T05:31:05;9.08;80.83
64111;DHT22;50401;48.188;11.566;2024-01-25T05:33:34;8.80;81.49
64111;DHT22;50401;48.188;11.566;2024-01-25T05:36:00;8.99;81.01
64111;DHT22;50401;48.188;11.566;2024-01-25T05:38:25;9.04;81.03
64111;DHT22;50401;48.188;11.566;2024-01-25T05:40:51;9.02;81.11
64111;DHT22;50401;48.188;11.566;2024-01-25T05:43:16;8.95;81.31
64111;DHT22;50401;48.188;11.566;2024-01-25T05:45:41;8.98;81.15
64111;DHT22;50401;48.188;11.566;2024-01-25T05:48:07;9.06;81.25
64111;DHT22;50401;48.188;11.566;2024-01-25T05:50:32;9.05;81.21
64111;DHT22;50401;48.188;11.566;2024-01-25T05:52:58;9.08;81.10
64111;DHT22;50401;48.188;11.566;2024-01-25T05:55:23;9.11;81.04
64111;DHT22;50401;48.188;11.566;2024-01-25T05:57:49;9.15;80.94
64111;DHT22;50401;48.188;11.566;2024-01-25T06:00:14;9.16;80.89
64111;DHT22;50401;48.188;11.566;2024-01-25T06:02:41;9.22;80.55
64111;DHT22;50401;48.188;11.566;2024-01-25T06:05:06;9.09;80.63
64111;DHT22;50401;48.188;11.566;2024-01-25T06:07:33;9.04;80.84
64111;DHT22;50401;48.188;11.566;2024-01-25T06:09:58;8.97;81.01
64111;DHT22;50401;48.188;11.566;2024-01-25T06:12:23;8.95;80.94
64111;DHT22;50401;48.188;11.566;2024-01-25T06:14:49;9.01;80.83
64111;DHT22;50401;48.188;11.566;2024-01-25T06:17:14;8.88;81.10
64111;DHT22;50401;48.188;11.566;2024-01-25T06:19:39;8.93;80.88
64111;DHT22;50401;48.188;11.566;2024-01-25T06:22:05;8.88;80.88
64111;DHT22;50401;48.188;11.566;2024-01-25T06:24:30;8.98;80.47
64111;DHT22;50401;48.188;11.566;2024-01-25T06:26:56;8.93;80.38
64111;DHT22;50401;48.188;11.566;2024-01-25T06:29:22;8.89;80.51
64111;DHT22;50401;48.188;11.566;2024-01-25T06:31:47;8.82;80.48
64111;DHT22;50401;48.188;11.566;2024-01-25T06:34:12;8.73;80.80
64111;DHT22;50401;48.188;11.566;2024-01-25T06:36:38;8.73;80.85
64111;DHT22;50401;48.188;11.566;2024-01-25T06:39:03;8.70;81.03
64111;DHT22;50401;48.188;11.566;2024-01-25T06:41:32;8.70;80.79
64111;DHT22;50401;48.188;11.566;2024-01-25T06:43:58;8.74;80.69
64111;DHT22;50401;48.188;11.566;2024-01-25T06:46:23;8.67;80.56
64111;DHT22;50401;48.188;11.566;2024-01-25T06:48:50;8.73;80.56
64111;DHT22;50401;48.188;11.566;2024-01-25T06:51:15;8.65;80.62
64111;DHT22;50401;48.188;11.566;2024-01-25T06:53:41;8.61;80.53
64111;DHT22;50401;48.188;11.566;2024-01-25T06:56:06;8.59;80.78
64111;DHT22;50401;48.188;11.566;2024-01-25T06:58:32;8.54;80.87
64111;DHT22;50401;48.188;11.566;2024-01-25T07:00:57;8.56;80.92
64111;DHT22;50401;48.188;11.566;2024-01-25T07:03:23;8.57;81.01
64111;DHT22;50401;48.188;11.566;2024-01-25T07:05:48;8.61;80.88
64111;DHT22;50401;48.188;11.566;2024-01-25T07:08:14;8.64;80.74
64111;DHT22;50401;48.188;11.566;2024-01-25T07:10:41;8.61;80.83
64111;DHT22;50401;48.188;11.566;2024-01-25T07:13:06;8.64;80.76
64111;DHT22;50401;48.188;11.566;2024-01-25T07:15:32;8.70;80.64
64111;DHT22;50401;48.188;11.566;2024-01-25T07:17:57;8.80;80.55
64111;DHT22;50401;48.188;11.566;2024-01-25T07:20:23;8.70;80.17
64111;DHT22;50401;48.188;11.566;2024-01-25T07:22:48;8.78;80.06
64111;DHT22;50401;48.188;11.566;2024-01-25T07:25:14;8.89;79.86
64111;DHT22;50401;48.188;11.566;2024-01-25T07:27:39;9.02;79.26
64111;DHT22;50401;48.188;11.566;2024-01-25T07:30:05;9.15;78.84
64111;DHT22;50401;48.188;11.566;2024-01-25T07:32:30;9.13;78.57
64111;DHT22;50401;48.188;11.566;2024-01-25T07:34:57;9.13;78.46
64111;DHT22;50401;48.188;11.566;2024-01-25T07:37:23;9.12;78.54
64111;DHT22;50401;48.188;11.566;2024-01-25T07:39:48;9.05;78.61
64111;DHT22;50401;48.188;11.566;2024-01-25T07:42:13;9.09;78.81
64111;DHT22;50401;48.188;11.566;2024-01-25T07:44:39;9.01;78.80
64111;DHT22;50401;48.188;11.566;2024-01-25T07:47:04;9.04;78.85
64111;DHT22;50401;48.188;11.566;2024-01-25T07:49:30;9.01;78.93
64111;DHT22;50401;48.188;11.566;2024-01-25T07:51:55;9.13;79.77
64111;DHT22;50401;48.188;11.566;2024-01-25T07:54:24;9.26;79.57
64111;DHT22;50401;48.188;11.566;2024-01-25T07:56:49;9.39;79.08
64111;DHT22;50401;48.188;11.566;2024-01-25T07:59:15;9.54;78.46
64111;DHT22;50401;48.188;11.566;2024-01-25T08:01:41;9.59;77.89
64111;DHT22;50401;48.188;11.566;2024-01-25T08:04:06;9.58;77.21
64111;DHT22;50401;48.188;11.566;2024-01-25T08:06:31;9.55;77.03
64111;DHT22;50401;48.188;11.566;2024-01-25T08:08:57;9.55;76.87
64111;DHT22;50401;48.188;11.566;2024-01-25T08:11:23;9.51;76.70
64111;DHT22;50401;48.188;11.566;2024-01-25T08:13:49;9.43;76.88
64111;DHT22;50401;48.188;11.566;2024-01-25T08:16:14;9.37;76.94
64111;DHT22;50401;48.188;11.566;2024-01-25T08:18:44;9.37;77.12
64111;DHT22;50401;48.188;11.566;2024-01-25T08:21:11;9.43;76.90
64111;DHT22;50401;48.188;11.566;2024-01-25T08:23:37;9.57;76.09
64111;DHT22;50401;48.188;11.566;2024-01-25T08:26:02;10.38;74.08
64111;DHT22;50401;48.188;11.566;2024-01-25T08:28:29;10.58;72.88
64111;DHT22;50401;48.188;11.566;2024-01-25T08:30:54;10.76;71.31
64111;DHT22;50401;48.188;11.566;2024-01-25T08:33:19;10.71;71.78
64111;DHT22;50401;48.188;11.566;2024-01-25T08:35:45;10.69;70.88
64111;DHT22;50401;48.188;11.566;2024-01-25T08:38:10;14.32;62.69
64111;DHT22;50401;48.188;11.566;2024-01-25T08:40:35;17.67;53.39
64111;DHT22;50401;48.188;11.566;2024-01-25T08:43:01;20.50;45.36
64111;DHT22;50401;48.188;11.566;2024-01-25T08:45:26;22.18;40.74
64111;DHT22;50401;48.188;11.566;2024-01-25T08:47:52;20.10;43.72
64111;DHT22;50401;48.188;11.566;2024-01-25T08:50:17;17.58;49.12
64111;DHT22;50401;48.188;11.566;2024-01-25T08:52:43;16.44;51.91
64111;DHT22;50401;48.188;11.566;2024-01-25T08:55:09;16.01;53.18
64111;DHT22;50401;48.188;11.566;2024-01-25T08:57:35;15.04;55.62
64111;DHT22;50401;48.188;11.566;2024-01-25T09:00:01;13.88;57.98
64111;DHT22;50401;48.188;11.566;2024-01-25T09:02:26;12.37;62.83
64111;DHT22;50401;48.188;11.566;2024-01-25T09:04:53;12.13;63.77
64111;DHT22;50401;48.188;11.566;2024-01-25T09:07:22;13.25;63.08
64111;DHT22;50401;48.188;11.566;2024-01-25T09:09:47;16.93;52.67
64111;DHT22;50401;48.188;11.566;2024-01-25T09:12:13;19.72;46.02
64111;DHT22;50401;48.188;11.566;2024-01-25T09:14:39;20.49;43.18
64111;DHT22;50401;48.188;11.566;2024-01-25T09:17:05;21.12;41.76
64111;DHT22;50401;48.188;11.566;2024-01-25T09:19:30;19.96;43.59
64111;DHT22;50401;48.188;11.566;2024-01-25T09:21:56;18.44;45.48
64111;DHT22;50401;48.188;11.566;2024-01-25T09:24:24;15.61;52.52
64111;DHT22;50401;48.188;11.566;2024-01-25T09:26:50;16.02;51.23
64111;DHT22;50401;48.188;11.566;2024-01-25T09:29:15;14.74;53.52
64111;DHT22;50401;48.188;11.566;2024-01-25T09:31:40;13.95;54.93
64111;DHT22;50401;48.188;11.566;2024-01-25T09:34:06;13.38;56.93
64111;DHT22;50401;48.188;11.566;2024-01-25T09:36:31;12.93;58.43
64111;DHT22;50401;48.188;11.566;2024-01-25T09:38:57;13.06;58.22
64111;DHT22;50401;48.188;11.566;2024-01-25T09:41:22;12.22;60.57
64111;DHT22;50401;48.188;11.566;2024-01-25T09:43:48;12.39;60.54
64111;DHT22;50401;48.188;11.566;2024-01-25T09:46:14;12.30;60.91
64111;DHT22;50401;48.188;11.566;2024-01-25T09:48:42;12.25;61.19
64111;DHT22;50401;48.188;11.566;2024-01-25T09:51:11;12.12;61.03
64111;DHT22;50401;48.188;11.566;2024-01-25T09:53:39;11.86;61.36
64111;DHT22;50401;48.188;11.566;2024-01-25T09:56:09;11.28;63.29
64111;DHT22;50401;48.188;11.566;2024-01-25T09:58:40;11.42;62.26
64111;DHT22;50401;48.188;11.566;2024-01-25T10:01:10;10.93;63.28
64111;DHT22;50401;48.188;11.566;2024-01-25T10:03:43;11.20;62.86
64111;DHT22;50401;48.188;11.566;2024-01-25T10:06:10;11.26;62.49
64111;DHT22;50401;48.188;11.566;2024-01-25T10:08:36;11.23;62.31
64111;DHT22;50401;48.188;11.566;2024-01-25T10:11:02;11.35;62.00
64111;DHT22;50401;48.188;11.566;2024-01-25T10:13:28;11.27;62.35
64111;DHT22;50401;48.188;11.566;2024-01-25T10:15:53;11.24;62.02
64111;DHT22;50401;48.188;11.566;2024-01-25T10:18:20;11.23;61.37
64111;DHT22;50401;48.188;11.566;2024-01-25T10:20:45;10.78;62.58
64111;DHT22;50401;48.188;11.566;2024-01-25T10:23:10;10.82;62.30
64111;DHT22;50401;48.188;11.566;2024-01-25T10:25:36;11.10;61.47
64111;DHT22;50401;48.188;11.566;2024-01-25T10:28:06;11.50;59.92
64111;DHT22;50401;48.188;11.566;2024-01-25T10:30:33;10.91;59.95
64111;DHT22;50401;48.188;11.566;2024-01-25T10:32:59;10.97;59.63
64111;DHT22;50401;48.188;11.566;2024-01-25T10:35:28;10.95;59.27
64111;DHT22;50401;48.188;11.566;2024-01-25T10:37:54;11.13;58.76
64111;DHT22;50401;48.188;11.566;2024-01-25T10:40:20;11.10;58.39
64111;DHT22;50401;48.188;11.566;2024-01-25T10:42:46;11.48;57.56
64111;DHT22;50401;48.188;11.566;2024-01-25T10:45:12;11.57;56.58
64111;DHT22;50401;48.188;11.566;2024-01-25T10:47:38;11.06;57.49
64111;DHT22;50401;48.188;11.566;2024-01-25T10:50:09;11.35;57.18
64111;DHT22;50401;48.188;11.566;2024-01-25T10:52:34;11.51;57.17
64111;DHT22;50401;48.188;11.566;2024-01-25T10:55:01;11.34;56.88
64111;DHT22;50401;48.188;11.566;2024-01-25T10:57:35;11.31;57.06
64111;DHT22;50401;48.188;11.566;2024-01-25T11:00:01;11.38;57.45
64111;DHT22;50401;48.188;11.566;2024-01-25T11:02:29;11.58;56.82
64111;DHT22;50401;48.188;11.566;2024-01-25T11:04:54;11.68;56.24
64111;DHT22;50401;48.188;11.566;2024-01-25T11:07:20;11.42;57.33
64111;DHT22;50401;48.188;11.566;2024-01-25T11:09:46;11.59;57.44
64111;DHT22;50401;48.188;11.566;2024-01-25T11:12:18;11.72;57.24
64111;DHT22;50401;48.188;11.566;2024-01-25T11:14:43;11.72;57.44
64111;DHT22;50401;48.188;11.566;2024-01-25T11:17:35;11.50;58.05
64111;DHT22;50401;48.188;11.566;2024-01-25T11:20:00;11.35;58.55
64111;DHT22;50401;48.188;11.566;2024-01-25T11:22:35;11.41;58.86
64111;DHT22;50401;48.188;11.566;2024-01-25T11:25:12;11.27;58.96
64111;DHT22;50401;48.188;11.566;2024-01-25T11:27:37;11.31;58.96
64111;DHT22;50401;48.188;11.566;2024-01-25T11:30:07;11.11;59.63
64111;DHT22;50401;48.188;11.566;2024-01-25T11:32:33;11.32;59.61
64111;DHT22;50401;48.188;11.566;2024-01-25T11:34:59;11.48;59.62
64111;DHT22;50401;48.188;11.566;2024-01-25T11:37:24;11.54;59.89
64111;DHT22;50401;48.188;11.566;2024-01-25T11:39:49;11.58;59.77
64111;DHT22;50401;48.188;11.566;2024-01-25T11:42:15;11.57;59.95
64111;DHT22;50401;48.188;11.566;2024-01-25T11:44:40;11.44;60.25
64111;DHT22;50401;48.188;11.566;2024-01-25T11:47:06;11.48;59.98
64111;DHT22;50401;48.188;11.566;2024-01-25T11:49:34;11.52;59.19
64111;DHT22;50401;48.188;11.566;2024-01-25T11:52:00;11.50;59.60
64111;DHT22;50401;48.188;11.566;2024-01-25T11:54:27;11.14;59.29
64111;DHT22;50401;48.188;11.566;2024-01-25T11:56:53;11.30;59.55
64111;DHT22;50401;48.188;11.566;2024-01-25T11:59:18;11.34;59.98
64111;DHT22;50401;48.188;11.566;2024-01-25T12:01:44;11.37;59.69
64111;DHT22;50401;48.188;11.566;2024-01-25T12:04:10;11.14;59.71
64111;DHT22;50401;48.188;11.566;2024-01-25T12:06:35;11.34;59.97
64111;DHT22;50401;48.188;11.566;2024-01-25T12:09:08;11.34;60.07
64111;DHT22;50401;48.188;11.566;2024-01-25T12:11:34;11.30;60.22
64111;DHT22;50401;48.188;11.566;2024-01-25T12:13:59;11.16;60.15
64111;DHT22;50401;48.188;11.566;2024-01-25T12:16:24;11.04;59.54
64111;DHT22;50401;48.188;11.566;2024-01-25T12:18:50;11.19;59.47
64111;DHT22;50401;48.188;11.566;2024-01-25T12:21:15;11.16;59.42
64111;DHT22;50401;48.188;11.566;2024-01-25T12:23:41;11.17;59.53
64111;DHT22;50401;48.188;11.566;2024-01-25T12:26:09;11.17;59.90
64111;DHT22;50401;48.188;11.566;2024-01-25T12:28:35;11.32;59.70
64111;DHT22;50401;48.188;11.566;2024-01-25T12:31:03;11.44;59.48
64111;DHT22;50401;48.188;11.566;2024-01-25T12:33:29;11.37;59.73
64111;DHT22;50401;48.188;11.566;2024-01-25T12:35:55;11.39;59.88
64111;DHT22;50401;48.188;11.566;2024-01-25T12:38:21;11.51;59.90
64111;DHT22;50401;48.188;11.566;2024-01-25T12:40:48;11.62;59.65
64111;DHT22;50401;48.188;11.566;2024-01-25T12:43:15;11.58;59.59
64111;DHT22;50401;48.188;11.566;2024-01-25T12:45:40;11.39;60.43
64111;DHT22;50401;48.188;11.566;2024-01-25T12:48:06;11.48;60.83
64111;DHT22;50401;48.188;11.566;2024-01-25T12:50:34;11.57;60.92
64111;DHT22;50401;48.188;11.566;2024-01-25T12:53:01;11.52;60.71
64111;DHT22;50401;48.188;11.566;2024-01-25T12:55:28;11.62;60.81
64111;DHT22;50401;48.188;11.566;2024-01-25T12:57:54;11.73;59.83
64111;DHT22;50401;48.188;11.566;2024-01-25T13:00:19;11.72;58.87
64111;DHT22;50401;48.188;11.566;2024-01-25T13:02:44;11.42;59.37
64111;DHT22;50401;48.188;11.566;2024-01-25T13:05:10;11.17;60.47
64111;DHT22;50401;48.188;11.566;2024-01-25T13:07:35;11.28;60.48
64111;DHT22;50401;48.188;11.566;2024-01-25T13:10:00;11.41;60.14
64111;DHT22;50401;48.188;11.566;2024-01-25T13:12:26;11.10;60.42
64111;DHT22;50401;48.188;11.566;2024-01-25T13:14:51;11.34;60.31
64111;DHT22;50401;48.188;11.566;2024-01-25T13:17:16;11.37;59.89
64111;DHT22;50401;48.188;11.566;2024-01-25T13:19:42;11.44;59.83
64111;DHT22;50401;48.188;11.566;2024-01-25T13:22:07;11.42;60.05
64111;DHT22;50401;48.188;11.566;2024-01-25T13:24:32;11.44;60.11
64111;DHT22;50401;48.188;11.566;2024-01-25T13:26:58;11.45;60.02
64111;DHT22;50401;48.188;11.566;2024-01-25T13:29:23;11.34;59.46
64111;DHT22;50401;48.188;11.566;2024-01-25T13:31:48;11.27;59.40
64111;DHT22;50401;48.188;11.566;2024-01-25T13:34:14;10.96;60.60
64111;DHT22;50401;48.188;11.566;2024-01-25T13:36:39;10.97;61.08
64111;DHT22;50401;48.188;11.566;2024-01-25T13:39:05;11.07;60.91
64111;DHT22;50401;48.188;11.566;2024-01-25T13:41:30;11.20;60.55
64111;DHT22;50401;48.188;11.566;2024-01-25T13:43:56;11.19;61.00
64111;DHT22;50401;48.188;11.566;2024-01-25T13:46:21;11.19;61.40
64111;DHT22;50401;48.188;11.566;2024-01-25T13:48:46;11.03;61.73
64111;DHT22;50401;48.188;11.566;2024-01-25T13:51:12;11.13;61.63
64111;DHT22;50401;48.188;11.566;2024-01-25T13:53:37;11.11;61.81
64111;DHT22;50401;48.188;11.566;2024-01-25T13:56:03;11.10;61.94
64111;DHT22;50401;48.188;11.566;2024-01-25T13:58:29;11.17;61.56
64111;DHT22;50401;48.188;11.566;2024-01-25T14:00:54;11.19;62.03
64111;DHT22;50401;48.188;11.566;2024-01-25T14:03:19;11.21;62.14
64111;DHT22;50401;48.188;11.566;2024-01-25T14:05:45;11.23;61.87
64111;DHT22;50401;48.188;11.566;2024-01-25T14:08:11;11.21;61.03
64111;DHT22;50401;48.188;11.566;2024-01-25T14:10:36;11.23;60.60
64111;DHT22;50401;48.188;11.566;2024-01-25T14:13:02;11.23;60.45
64111;DHT22;50401;48.188;11.566;2024-01-25T14:15:28;11.23;59.88
64111;DHT22;50401;48.188;11.566;2024-01-25T14:17:53;11.13;59.89
64111;DHT22;50401;48.188;11.566;2024-01-25T14:20:19;10.88;60.57
64111;DHT22;50401;48.188;11.566;2024-01-25T14:22:44;10.92;60.75
64111;DHT22;50401;48.188;11.566;2024-01-25T14:25:09;10.95;61.03
64111;DHT22;50401;48.188;11.566;2024-01-25T14:27:35;10.80;61.05
64111;DHT22;50401;48.188;11.566;2024-01-25T14:30:01;10.86;61.25
64111;DHT22;50401;48.188;11.566;2024-01-25T14:32:29;10.69;61.72
64111;DHT22;50401;48.188;11.566;2024-01-25T14:34:54;10.73;62.01
64111;DHT22;50401;48.188;11.566;2024-01-25T14:37:19;10.80;61.85
64111;DHT22;50401;48.188;11.566;2024-01-25T14:39:45;10.73;62.30
64111;DHT22;50401;48.188;11.566;2024-01-25T14:42:11;10.82;62.18
64111;DHT22;50401;48.188;11.566;2024-01-25T14:44:37;10.82;62.33
64111;DHT22;50401;48.188;11.566;2024-01-25T14:47:03;10.85;62.35
64111;DHT22;50401;48.188;11.566;2024-01-25T14:49:28;10.83;62.72
64111;DHT22;50401;48.188;11.566;2024-01-25T14:51:54;10.85;62.63
64111;DHT22;50401;48.188;11.566;2024-01-25T14:54:19;10.82;62.72
64111;DHT22;50401;48.188;11.566;2024-01-25T14:56:44;10.80;62.93
64111;DHT22;50401;48.188;11.566;2024-01-25T14:59:10;10.78;62.93
64111;DHT22;50401;48.188;11.566;2024-01-25T15:01:35;10.76;63.15
64111;DHT22;50401;48.188;11.566;2024-01-25T15:04:01;10.75;63.28
64111;DHT22;50401;48.188;11.566;2024-01-25T15:06:26;10.73;63.22
64111;DHT22;50401;48.188;11.566;2024-01-25T15:08:52;10.72;63.44
64111;DHT22;50401;48.188;11.566;2024-01-25T15:11:18;10.71;63.65
64111;DHT22;50401;48.188;11.566;2024-01-25T15:13:43;10.69;63.81
64111;DHT22;50401;48.188;11.566;2024-01-25T15:16:08;10.72;63.74